Time;durP1;ratioP1;P1;durP2;ratioP2;P2;SDS_P1;SDS_P2;PMS_P1;PMS_P2;Temp;Humidity;BMP_temperature;BMP_pressure;BME280_temperature;BME280_humidity;BME280_pressure;Samples;Min_cycle;Max_cycle;Signal;HPM_P1;HPM_P2
2022/03/13 00:01:47;;;;;;;41.45;37.40;;;4.60;68.50;;;;;;5092544;28;20222;-71
2022/03/13 00:04:14;;;;;;;42.65;38.92;;;4.60;68.10;;;;;;5092519;28;20196;-72
2022/03/13 00:06:44;;;;;;;41.50;37.80;;;4.50;68.20;;;;;;5092364;28;20206;-72
2022/03/13 00:09:14;;;;;;;42.95;39.15;;;4.40;68.40;;;;;;5092180;28;20289;-72
2022/03/13 00:11:43;;;;;;;44.15;39.95;;;4.40;68.60;;;;;;5092346;28;20217;-72
2022/03/13 00:14:10;;;;;;;43.58;39.67;;;4.40;68.50;;;;;;5092309;28;20671;-72
2022/03/13 00:16:38;;;;;;;40.85;37.38;;;4.40;68.90;;;;;;5092374;28;20194;-72
2022/03/13 00:19:06;;;;;;;39.78;36.33;;;4.30;69.00;;;;;;5094408;28;20290;-72
2022/03/13 00:21:35;;;;;;;41.38;37.55;;;4.20;69.10;;;;;;5096184;28;20221;-72
2022/03/13 00:24:03;;;;;;;57.83;39.65;;;4.20;69.10;;;;;;5096209;28;20202;-72
2022/03/13 00:26:30;;;;;;;43.25;39.25;;;4.10;69.30;;;;;;5096078;28;20687;-72
2022/03/13 00:28:58;;;;;;;42.30;38.72;;;4.20;69.20;;;;;;5096001;28;20219;-72
2022/03/13 00:31:25;;;;;;;42.92;38.72;;;4.20;68.80;;;;;;5095861;28;20218;-72
2022/03/13 00:33:52;;;;;;;43.88;39.78;;;4.20;68.90;;;;;;5095933;28;20198;-72
2022/03/13 00:36:19;;;;;;;42.15;38.50;;;4.00;69.50;;;;;;5096092;28;20274;-71
2022/03/13 00:38:46;;;;;;;44.50;40.03;;;4.00;70.00;;;;;;5095921;28;20249;-71
2022/03/13 00:41:13;;;;;;;40.30;36.75;;;3.90;70.00;;;;;;5095646;28;20201;-72
2022/03/13 00:43:40;;;;;;;41.42;37.38;;;4.00;69.70;;;;;;5095940;28;20284;-72
2022/03/13 00:46:08;;;;;;;41.47;37.63;;;3.90;70.10;;;;;;5095496;28;20285;-72
2022/03/13 00:48:35;;;;;;;43.40;39.53;;;3.80;70.40;;;;;;5095685;28;20216;-72
2022/03/13 00:51:03;;;;;;;42.33;38.67;;;3.90;70.30;;;;;;5095371;28;20220;-72
2022/03/13 00:53:30;;;;;;;41.58;37.97;;;3.80;70.20;;;;;;5095699;28;20202;-72
2022/03/13 00:55:57;;;;;;;41.95;38.15;;;3.80;70.10;;;;;;5095469;28;20199;-72
2022/03/13 00:58:24;;;;;;;40.30;36.50;;;3.70;70.50;;;;;;5095448;28;20198;-72
2022/03/13 01:00:51;;;;;;;43.47;39.50;;;3.80;70.50;;;;;;5095260;28;20232;-72
2022/03/13 01:03:47;;;;;;;42.88;39.20;;;3.70;70.50;;;;;;5095524;28;20224;-72
2022/03/13 01:06:14;;;;;;;42.40;38.17;;;3.70;70.70;;;;;;5095167;28;20208;-72
2022/03/13 01:08:43;;;;;;;40.55;36.90;;;3.50;71.00;;;;;;5095397;28;20223;-72
2022/03/13 01:11:10;;;;;;;42.42;38.75;;;3.50;71.20;;;;;;5095019;28;20202;-72
2022/03/13 01:13:37;;;;;;;41.17;37.58;;;3.40;75.10;;;;;;5095408;28;20326;-72
2022/03/13 01:16:12;;;;;;;42.50;38.63;;;3.40;73.30;;;;;;5095088;28;20293;-72
2022/03/13 01:18:44;;;;;;;40.78;37.30;;;3.40;72.30;;;;;;5095170;28;20194;-72
2022/03/13 01:21:11;;;;;;;42.35;38.45;;;3.40;71.90;;;;;;5094889;28;20681;-72
2022/03/13 01:23:39;;;;;;;40.25;36.72;;;3.40;71.70;;;;;;5095214;28;20194;-72
2022/03/13 01:26:37;;;;;;;39.83;36.42;;;3.40;71.40;;;;;;5095018;28;20212;-72
2022/03/13 01:29:07;;;;;;;40.90;37.50;;;3.50;71.00;;;;;;5094866;28;20276;-72
2022/03/13 01:31:36;;;;;;;42.10;38.50;;;3.60;70.70;;;;;;5094014;28;20221;-72
2022/03/13 01:34:06;;;;;;;41.47;37.88;;;3.50;70.60;;;;;;5094852;28;20279;-72
2022/03/13 01:36:34;;;;;;;40.33;36.70;;;3.50;70.70;;;;;;5095123;28;20194;-72
2022/03/13 01:39:01;;;;;;;40.55;36.95;;;3.40;70.90;;;;;;5094719;28;20194;-71
2022/03/13 01:41:31;;;;;;;42.53;38.78;;;3.30;71.00;;;;;;5094687;28;20217;-72
2022/03/13 01:43:58;;;;;;;42.25;38.28;;;3.30;71.20;;;;;;5094638;28;20205;-72
2022/03/13 01:46:25;;;;;;;41.05;37.45;;;3.40;71.00;;;;;;5094281;28;20569;-72
2022/03/13 01:48:54;;;;;;;41.30;37.70;;;3.30;71.00;;;;;;5094695;28;20214;-72
2022/03/13 01:51:23;;;;;;;43.50;39.88;;;3.20;71.30;;;;;;5094187;28;20217;-72
2022/03/13 01:53:53;;;;;;;41.35;37.35;;;3.10;71.60;;;;;;5094605;28;20219;-72
2022/03/13 01:56:21;;;;;;;43.75;39.97;;;3.20;71.50;;;;;;5094599;28;20223;-72
2022/03/13 01:58:55;;;;;;;42.67;38.97;;;3.20;71.40;;;;;;5095401;28;20288;-72
2022/03/13 02:01:25;;;;;;;40.63;37.13;;;3.10;71.40;;;;;;5095301;28;20217;-72
2022/03/13 02:03:52;;;;;;;41.88;38.28;;;3.10;71.70;;;;;;5095279;28;20197;-72
2022/03/13 02:06:21;;;;;;;43.47;39.58;;;3.00;71.80;;;;;;5094122;28;20297;-72
2022/03/13 02:08:50;;;;;;;42.63;38.70;;;3.10;71.60;;;;;;5094852;28;20216;-72
2022/03/13 02:11:19;;;;;;;42.92;39.15;;;3.00;71.70;;;;;;5095066;28;20202;-72
2022/03/13 02:13:48;;;;;;;40.80;37.10;;;3.00;71.90;;;;;;5095486;28;20197;-72
2022/03/13 02:16:17;;;;;;;43.25;39.25;;;3.00;71.90;;;;;;5093952;28;20197;-72
2022/03/13 02:18:48;;;;;;;40.83;37.40;;;3.00;71.80;;;;;;5093993;28;20655;-72
2022/03/13 02:21:16;;;;;;;40.80;37.13;;;2.90;72.10;;;;;;5093763;28;20292;-71
2022/03/13 02:23:45;;;;;;;41.50;37.53;;;2.90;72.30;;;;;;5094076;28;20280;-72
2022/03/13 02:26:12;;;;;;;43.38;39.15;;;2.90;72.30;;;;;;5093827;28;20199;-72
2022/03/13 02:28:50;;;;;;;39.22;35.92;;;2.90;72.30;;;;;;5093667;28;20284;-72
2022/03/13 02:31:18;;;;;;;40.90;37.28;;;2.80;72.30;;;;;;5093683;28;20205;-72
2022/03/13 02:33:45;;;;;;;39.95;36.45;;;2.80;72.50;;;;;;5093802;28;20347;-72
2022/03/13 02:36:23;;;;;;;41.10;37.50;;;2.80;72.30;;;;;;5093691;28;20197;-72
2022/03/13 02:38:52;;;;;;;41.30;37.80;;;2.80;72.10;;;;;;5093622;28;20197;-72
2022/03/13 02:41:19;;;;;;;40.47;36.78;;;2.80;72.20;;;;;;5093416;28;20218;-72
2022/03/13 02:43:46;;;;;;;39.60;36.05;;;2.80;72.10;;;;;;5093614;28;20647;-72
2022/03/13 02:46:19;;;;;;;38.90;35.50;;;2.70;72.30;;;;;;5093161;28;20204;-72
2022/03/13 02:48:46;;;;;;;39.20;36.03;;;2.70;72.20;;;;;;5093329;28;20258;-72
2022/03/13 02:51:13;;;;;;;41.58;37.78;;;2.70;72.00;;;;;;5093006;28;20197;-72
2022/03/13 02:53:40;;;;;;;41.40;37.83;;;2.70;71.90;;;;;;5093487;28;20292;-71
2022/03/13 02:56:09;;;;;;;42.10;38.40;;;2.60;71.90;;;;;;5093299;28;20198;-72
2022/03/13 02:58:36;;;;;;;40.45;36.65;;;2.60;72.10;;;;;;5093045;28;20677;-72
2022/03/13 03:01:03;;;;;;;39.00;35.78;;;2.60;72.20;;;;;;5092992;28;20730;-71
2022/03/13 03:03:30;;;;;;;40.65;36.83;;;2.60;72.20;;;;;;5093409;28;20197;-71
2022/03/13 03:05:57;;;;;;;39.53;36.28;;;2.50;72.10;;;;;;5093276;28;20221;-72
2022/03/13 03:08:24;;;;;;;41.95;38.28;;;2.50;71.90;;;;;;5093025;28;20609;-72
2022/03/13 03:10:52;;;;;;;39.42;36.00;;;2.50;72.80;;;;;;5092759;28;20687;-71
2022/03/13 03:13:20;;;;;;;38.80;35.00;;;2.50;72.60;;;;;;5092966;28;20232;-71
2022/03/13 03:15:47;;;;;;;39.13;35.90;;;2.50;72.30;;;;;;5093004;28;20596;-71
2022/03/13 03:18:14;;;;;;;39.45;35.92;;;2.50;72.00;;;;;;5093002;28;20685;-72
2022/03/13 03:20:41;;;;;;;38.88;35.40;;;2.50;71.60;;;;;;5092862;28;20193;-71
2022/03/13 03:23:08;;;;;;;38.88;35.60;;;2.50;71.50;;;;;;5092920;28;20316;-71
2022/03/13 03:25:35;;;;;;;40.67;37.00;;;2.40;71.80;;;;;;5092747;28;20207;-71
2022/03/13 03:28:02;;;;;;;40.47;36.67;;;2.40;72.20;;;;;;5092869;28;20204;-71
2022/03/13 03:30:31;;;;;;;39.55;36.25;;;2.50;72.00;;;;;;5092575;28;20221;-72
2022/03/13 03:33:03;;;;;;;39.25;35.95;;;2.50;71.40;;;;;;5092753;28;20313;-72
2022/03/13 03:35:30;;;;;;;39.33;35.95;;;2.50;71.50;;;;;;5092778;28;20193;-72
2022/03/13 03:37:57;;;;;;;39.85;36.20;;;2.40;71.30;;;;;;5092736;28;20196;-71
2022/03/13 03:40:25;;;;;;;41.72;38.10;;;2.40;71.20;;;;;;5092512;28;20192;-71
2022/03/13 03:42:55;;;;;;;40.13;36.72;;;2.30;71.50;;;;;;5092557;28;20647;-72
2022/03/13 03:45:22;;;;;;;40.33;36.83;;;2.30;71.80;;;;;;5092578;28;20211;-72
2022/03/13 03:47:50;;;;;;;38.58;35.35;;;2.30;71.50;;;;;;5092685;28;20686;-72
2022/03/13 03:50:18;;;;;;;38.47;35.30;;;2.40;71.30;;;;;;5092231;28;20246;-72
2022/03/13 03:52:45;;;;;;;40.28;36.13;;;2.30;71.20;;;;;;5092580;28;20225;-71
2022/03/13 03:55:13;;;;;;;39.63;36.13;;;2.30;71.20;;;;;;5096651;28;20702;-71
2022/03/13 03:57:40;;;;;;;38.42;35.03;;;2.30;71.30;;;;;;5096775;28;20197;-71
2022/03/13 04:00:09;;;;;;;37.63;34.42;;;2.30;71.30;;;;;;5096477;28;20677;-71
2022/03/13 04:02:37;;;;;;;39.35;35.63;;;2.40;71.00;;;;;;5096573;28;20646;-72
2022/03/13 04:05:06;;;;;;;39.70;36.05;;;2.40;71.00;;;;;;5096529;28;20236;-71
2022/03/13 04:07:33;;;;;;;39.97;36.67;;;2.40;71.20;;;;;;5096306;28;20674;-71
2022/03/13 04:10:00;;;;;;;38.72;35.50;;;2.40;71.30;;;;;;5096285;28;20379;-71
2022/03/13 04:12:27;;;;;;;38.22;34.95;;;2.30;71.50;;;;;;5096424;28;20769;-72
2022/03/13 04:14:54;;;;;;;39.42;35.72;;;2.30;71.20;;;;;;5096286;28;20663;-72
2022/03/13 04:17:21;;;;;;;39.33;35.90;;;2.30;71.00;;;;;;5096365;28;20200;-71
2022/03/13 04:19:48;;;;;;;39.35;35.88;;;2.40;70.80;;;;;;5095998;28;20689;-71
2022/03/13 04:22:16;;;;;;;38.53;34.92;;;2.40;71.00;;;;;;5096124;28;20725;-72
2022/03/13 04:24:43;;;;;;;40.67;37.10;;;2.50;70.60;;;;;;5096184;28;20197;-71
2022/03/13 04:27:10;;;;;;;38.80;35.40;;;2.50;70.50;;;;;;5096086;28;20686;-72
2022/03/13 04:29:37;;;;;;;39.10;35.60;;;2.50;70.60;;;;;;5095860;28;20223;-72
2022/03/13 04:32:08;;;;;;;39.53;35.95;;;2.60;70.20;;;;;;5096067;28;20691;-71
2022/03/13 04:34:35;;;;;;;40.45;36.63;;;2.60;70.10;;;;;;5095968;28;20193;-72
2022/03/13 04:37:02;;;;;;;39.28;35.72;;;2.70;70.10;;;;;;5095946;28;20653;-71
2022/03/13 04:39:35;;;;;;;38.42;35.15;;;2.60;70.20;;;;;;5095710;28;20205;-71
2022/03/13 04:42:03;;;;;;;40.60;37.13;;;2.60;70.40;;;;;;5095927;28;20225;-72
2022/03/13 04:44:29;;;;;;;37.95;34.25;;;2.50;70.30;;;;;;5095680;28;20208;-71
2022/03/13 04:46:56;;;;;;;38.92;35.50;;;2.50;70.40;;;;;;5095693;28;20205;-71
2022/03/13 04:49:23;;;;;;;38.97;35.60;;;2.40;70.50;;;;;;5095502;28;20287;-71
2022/03/13 04:51:50;;;;;;;38.65;35.45;;;2.50;70.60;;;;;;5095476;28;20224;-71
2022/03/13 04:54:18;;;;;;;39.50;35.90;;;2.50;70.70;;;;;;5095630;28;20701;-71
2022/03/13 04:56:46;;;;;;;38.88;35.38;;;2.50;70.70;;;;;;5095668;28;20201;-71
2022/03/13 04:59:13;;;;;;;39.92;36.10;;;2.50;70.70;;;;;;5095176;28;20712;-71
2022/03/13 05:01:41;;;;;;;40.10;36.17;;;2.60;70.80;;;;;;5095546;28;20252;-71
2022/03/13 05:04:08;;;;;;;39.28;35.92;;;2.60;70.60;;;;;;5095342;28;20198;-71
2022/03/13 05:06:37;;;;;;;40.67;37.13;;;2.70;70.80;;;;;;5094309;28;20295;-71
2022/03/13 05:09:05;;;;;;;37.92;34.63;;;2.80;70.50;;;;;;5095232;28;20575;-71
2022/03/13 05:11:32;;;;;;;39.83;36.05;;;2.90;70.20;;;;;;5095026;28;20308;-72
2022/03/13 05:14:00;;;;;;;40.83;36.92;;;2.90;70.30;;;;;;5095204;28;20666;-71
2022/03/13 05:16:28;;;;;;;39.97;36.25;;;2.80;70.60;;;;;;5095316;28;20198;-71
2022/03/13 05:18:55;;;;;;;40.58;37.05;;;2.90;70.60;;;;;;5095123;28;20204;-72
2022/03/13 05:21:22;;;;;;;39.97;36.60;;;2.80;70.60;;;;;;5094901;28;20214;-71
2022/03/13 05:23:49;;;;;;;40.20;36.35;;;2.90;70.70;;;;;;5095246;28;20205;-71
2022/03/13 05:26:15;;;;;;;39.28;35.78;;;2.90;70.60;;;;;;5095066;28;20192;-72
2022/03/13 05:28:42;;;;;;;41.38;37.67;;;2.90;70.80;;;;;;5095013;28;20223;-72
2022/03/13 05:31:11;;;;;;;41.60;37.92;;;3.00;70.60;;;;;;5094609;28;20627;-72
2022/03/13 05:33:38;;;;;;;40.25;36.75;;;3.00;70.50;;;;;;5094904;28;20636;-71
2022/03/13 05:36:06;;;;;;;41.53;38.05;;;3.10;70.30;;;;;;5094960;28;20196;-71
2022/03/13 05:38:34;;;;;;;39.58;35.97;;;3.10;70.20;;;;;;5094866;28;20345;-71
2022/03/13 05:41:05;;;;;;;40.35;36.67;;;3.10;70.20;;;;;;5094643;28;20250;-71
2022/03/13 05:43:32;;;;;;;39.88;36.60;;;3.20;70.20;;;;;;5094772;28;20194;-71
2022/03/13 05:45:59;;;;;;;39.88;36.17;;;3.10;70.30;;;;;;5094409;28;20290;-71
2022/03/13 05:48:30;;;;;;;39.50;36.08;;;3.10;70.40;;;;;;5094634;28;20197;-71
2022/03/13 05:50:57;;;;;;;39.58;36.15;;;3.10;70.60;;;;;;5094247;28;20298;-72
2022/03/13 05:53:24;;;;;;;43.10;39.25;;;3.10;70.60;;;;;;5094563;28;20216;-72
2022/03/13 05:55:51;;;;;;;39.13;35.78;;;3.20;70.50;;;;;;5094355;28;20626;-72
2022/03/13 05:58:19;;;;;;;41.15;37.30;;;3.20;71.60;;;;;;5094490;28;20269;-72
2022/03/13 06:01:03;;;;;;;40.75;37.08;;;3.20;73.30;;;;;;5094431;28;20208;-72
2022/03/13 06:03:31;;;;;;;40.47;36.75;;;3.30;73.00;;;;;;5094561;28;20725;-72
2022/03/13 06:05:58;;;;;;;41.75;37.78;;;3.20;73.50;;;;;;5094160;28;20777;-71
2022/03/13 06:08:25;;;;;;;40.97;37.38;;;3.20;74.20;;;;;;5094282;28;20303;-72
2022/03/13 06:10:52;;;;;;;39.28;35.88;;;3.30;73.90;;;;;;5093873;28;20320;-72
2022/03/13 06:13:22;;;;;;;41.38;37.33;;;3.30;74.60;;;;;;5094174;28;20212;-72
2022/03/13 06:15:49;;;;;;;40.38;36.90;;;3.40;72.70;;;;;;5093836;28;20252;-72
2022/03/13 06:18:16;;;;;;;41.50;37.63;;;3.50;71.50;;;;;;5093844;28;20208;-72
2022/03/13 06:20:45;;;;;;;41.13;37.25;;;3.50;71.30;;;;;;5093730;28;20203;-72
2022/03/13 06:23:13;;;;;;;41.63;37.38;;;3.70;70.80;;;;;;5093816;28;20316;-72
2022/03/13 06:25:43;;;;;;;40.30;36.65;;;3.70;70.70;;;;;;5093917;28;20249;-72
2022/03/13 06:28:10;;;;;;;40.75;37.00;;;3.60;71.20;;;;;;5093808;28;20285;-72
2022/03/13 06:30:37;;;;;;;42.95;39.05;;;3.70;71.60;;;;;;5093570;28;20221;-72
2022/03/13 06:33:04;;;;;;;40.90;37.28;;;3.70;71.20;;;;;;5093658;28;20222;-72
2022/03/13 06:35:32;;;;;;;40.75;37.30;;;3.80;71.00;;;;;;5093544;28;20285;-72
2022/03/13 06:38:00;;;;;;;40.42;36.70;;;3.80;70.30;;;;;;5093533;28;20254;-72
2022/03/13 06:40:28;;;;;;;41.60;37.72;;;3.90;70.20;;;;;;5093455;28;20193;-72
2022/03/13 06:42:58;;;;;;;43.97;39.97;;;3.90;70.20;;;;;;5093541;28;20314;-72
2022/03/13 06:45:25;;;;;;;41.92;38.17;;;4.00;70.00;;;;;;5093333;28;20200;-72
2022/03/13 06:47:53;;;;;;;39.67;36.30;;;4.00;69.90;;;;;;5093417;28;20202;-72
2022/03/13 06:50:23;;;;;;;40.58;36.67;;;4.10;69.80;;;;;;5093197;28;20626;-72
2022/03/13 06:52:52;;;;;;;42.67;38.88;;;4.20;69.40;;;;;;5093525;28;20225;-72
2022/03/13 06:55:22;;;;;;;41.97;38.28;;;4.20;69.20;;;;;;5093499;28;20580;-72
2022/03/13 06:57:50;;;;;;;42.92;39.08;;;4.30;70.60;;;;;;5093256;28;20202;-72
2022/03/13 07:00:18;;;;;;;43.67;39.78;;;4.40;72.30;;;;;;5093166;28;20225;-72
2022/03/13 07:02:44;;;;;;;41.97;38.15;;;4.50;73.80;;;;;;5093211;28;20721;-72
2022/03/13 07:05:12;;;;;;;42.42;38.58;;;4.50;71.00;;;;;;5093185;28;20689;-72
2022/03/13 07:07:38;;;;;;;43.40;39.33;;;4.60;70.30;;;;;;5093043;28;20657;-72
2022/03/13 07:10:11;;;;;;;41.70;38.22;;;4.70;69.30;;;;;;5092799;28;20199;-72
2022/03/13 07:12:40;;;;;;;42.60;38.83;;;4.70;69.60;;;;;;5092977;28;20301;-72
2022/03/13 07:15:10;;;;;;;43.67;40.22;;;4.80;72.10;;;;;;5093200;28;20203;-72
2022/03/13 07:17:37;;;;;;;42.67;38.97;;;5.00;72.10;;;;;;5093118;28;20238;-72
2022/03/13 07:20:05;;;;;;;39.28;35.85;;;5.00;69.30;;;;;;5092822;28;20203;-72
2022/03/13 07:22:33;;;;;;;46.42;42.13;;;5.20;68.40;;;;;;5092931;28;20215;-72
2022/03/13 07:25:00;;;;;;;44.78;40.55;;;5.30;67.40;;;;;;5092937;28;20196;-72
2022/03/13 07:27:26;;;;;;;45.38;41.10;;;5.40;66.30;;;;;;5092650;28;20196;-72
2022/03/13 07:29:55;;;;;;;44.45;40.15;;;5.40;67.60;;;;;;5092193;28;20679;-72
2022/03/13 07:32:22;;;;;;;44.00;40.08;;;5.50;68.30;;;;;;5092782;28;20228;-72
2022/03/13 07:34:49;;;;;;;45.80;41.60;;;5.60;65.50;;;;;;5092777;28;20195;-72
2022/03/13 07:37:15;;;;;;;45.28;41.05;;;5.50;65.20;;;;;;5092757;28;20267;-72
2022/03/13 07:39:47;;;;;;;43.47;39.80;;;5.60;65.20;;;;;;5092452;28;20544;-72
2022/03/13 07:42:14;;;;;;;44.33;40.30;;;5.60;65.10;;;;;;5092695;28;20253;-72
2022/03/13 07:44:41;;;;;;;44.42;40.22;;;5.70;64.80;;;;;;5092567;28;20196;-72
2022/03/13 07:47:10;;;;;;;47.47;43.28;;;5.90;64.30;;;;;;5092752;28;20205;-72
2022/03/13 07:49:38;;;;;;;43.60;39.80;;;6.10;64.00;;;;;;5092493;28;20225;-72
2022/03/13 07:52:05;;;;;;;44.55;40.33;;;6.20;63.50;;;;;;5092521;28;20306;-72
2022/03/13 07:54:33;;;;;;;43.22;39.33;;;6.30;63.30;;;;;;5092610;28;20552;-72
2022/03/13 07:56:59;;;;;;;44.45;40.40;;;6.50;62.70;;;;;;5092590;28;20466;-72
2022/03/13 07:59:26;;;;;;;43.85;40.08;;;6.50;62.60;;;;;;5092413;28;20286;-72
2022/03/13 08:01:53;;;;;;;43.58;39.90;;;6.60;62.50;;;;;;5092520;28;20693;-72
2022/03/13 08:04:21;;;;;;;45.72;41.83;;;6.80;62.30;;;;;;5092591;28;20200;-72
2022/03/13 08:06:49;;;;;;;45.65;41.42;;;6.90;61.60;;;;;;5092335;28;20220;-72
2022/03/13 08:09:15;;;;;;;42.55;39.03;;;7.00;61.40;;;;;;5092311;28;20200;-72
2022/03/13 08:11:43;;;;;;;41.90;38.40;;;7.10;61.20;;;;;;5092324;28;20246;-73
2022/03/13 08:14:12;;;;;;;42.83;38.92;;;7.20;60.70;;;;;;5092464;28;20209;-72
2022/03/13 08:16:39;;;;;;;43.20;39.42;;;7.30;60.30;;;;;;5092332;28;20203;-72
2022/03/13 08:19:06;;;;;;;41.88;38.25;;;7.40;59.90;;;;;;5092346;28;20668;-72
2022/03/13 08:21:34;;;;;;;41.88;38.30;;;7.50;59.00;;;;;;5092139;28;20212;-72
2022/03/13 08:24:01;;;;;;;42.00;38.05;;;7.60;58.70;;;;;;5092347;28;20203;-72
2022/03/13 08:26:30;;;;;;;42.47;38.88;;;7.70;58.60;;;;;;5092334;28;20209;-72
2022/03/13 08:28:57;;;;;;;41.08;37.72;;;7.80;57.70;;;;;;5092236;28;20658;-72
2022/03/13 08:31:23;;;;;;;41.58;37.95;;;7.90;57.20;;;;;;5092047;28;20220;-72
2022/03/13 08:33:51;;;;;;;40.40;36.80;;;8.00;56.90;;;;;;5091758;28;20676;-72
2022/03/13 08:36:18;;;;;;;40.90;37.45;;;8.20;56.40;;;;;;5092176;28;20205;-72
2022/03/13 08:38:46;;;;;;;41.53;38.03;;;8.30;56.10;;;;;;5092181;28;20619;-72
2022/03/13 08:41:13;;;;;;;43.10;38.22;;;8.40;55.60;;;;;;5095592;28;20207;-72
2022/03/13 08:43:40;;;;;;;43.20;39.22;;;8.60;55.30;;;;;;5096026;28;20192;-72
2022/03/13 08:46:07;;;;;;;41.47;37.88;;;8.60;55.30;;;;;;5095638;28;20231;-72
2022/03/13 08:48:34;;;;;;;43.10;38.88;;;8.70;55.10;;;;;;5095678;28;20222;-72
2022/03/13 08:51:01;;;;;;;43.50;39.42;;;8.90;54.90;;;;;;5095368;28;20216;-73
2022/03/13 08:53:28;;;;;;;42.75;38.88;;;9.00;55.10;;;;;;5095762;28;20571;-72
2022/03/13 08:55:56;;;;;;;45.90;41.67;;;9.20;54.60;;;;;;5095650;28;20203;-72
2022/03/13 08:58:23;;;;;;;42.65;39.28;;;9.30;54.40;;;;;;5095608;28;20206;-72
2022/03/13 09:00:51;;;;;;;43.85;40.05;;;9.40;54.20;;;;;;5095348;28;20231;-73
2022/03/13 09:03:18;;;;;;;44.40;40.25;;;9.50;53.70;;;;;;5095446;28;20258;-73
2022/03/13 09:05:46;;;;;;;42.35;38.75;;;9.50;53.80;;;;;;5095405;28;20233;-72
2022/03/13 09:08:13;;;;;;;43.55;39.55;;;9.60;53.60;;;;;;5095246;28;20707;-73
2022/03/13 09:10:40;;;;;;;42.90;39.22;;;9.80;53.20;;;;;;5095256;28;20659;-72
2022/03/13 09:13:08;;;;;;;41.92;38.40;;;9.80;53.30;;;;;;5095245;28;20307;-73
2022/03/13 09:15:37;;;;;;;41.33;37.70;;;9.80;53.40;;;;;;5095202;28;20642;-73
2022/03/13 09:18:05;;;;;;;42.90;39.05;;;10.00;53.40;;;;;;5095231;28;20201;-72
2022/03/13 09:20:32;;;;;;;41.40;37.70;;;10.10;53.30;;;;;;5095013;28;20202;-72
2022/03/13 09:22:59;;;;;;;44.00;39.90;;;10.20;53.20;;;;;;5095025;28;20222;-73
2022/03/13 09:25:25;;;;;;;44.07;40.20;;;10.50;52.80;;;;;;5095127;28;20457;-72
2022/03/13 09:27:53;;;;;;;43.92;40.08;;;10.60;52.30;;;;;;5095076;28;20532;-70
2022/03/13 09:30:21;;;;;;;43.30;39.80;;;10.70;52.30;;;;;;5094777;28;20201;-70
2022/03/13 09:32:49;;;;;;;41.17;37.70;;;10.70;52.30;;;;;;5095116;28;20485;-70
2022/03/13 09:35:16;;;;;;;44.43;40.20;;;10.80;52.20;;;;;;5094992;28;20536;-70
2022/03/13 09:37:43;;;;;;;43.80;39.90;;;11.00;52.00;;;;;;5095032;28;20531;-71
2022/03/13 09:40:12;;;;;;;42.43;38.37;;;11.10;51.50;;;;;;5094538;28;20794;-73
2022/03/13 09:42:39;;;;;;;43.23;39.53;;;11.20;51.50;;;;;;5094699;28;20475;-73
2022/03/13 09:45:06;;;;;;;43.60;39.60;;;11.30;51.20;;;;;;5094525;28;21036;-72
2022/03/13 09:47:37;;;;;;;43.17;39.40;;;11.40;51.00;;;;;;5094650;28;21003;-73
2022/03/13 09:50:05;;;;;;;42.87;39.23;;;11.50;50.40;;;;;;5094392;28;20455;-72
2022/03/13 09:52:33;;;;;;;43.87;39.77;;;11.50;50.20;;;;;;5093774;28;20477;-73
2022/03/13 09:55:00;;;;;;;44.07;40.43;;;11.80;49.70;;;;;;5094373;28;20458;-72
2022/03/13 09:57:28;;;;;;;42.53;39.00;;;11.90;49.40;;;;;;5094379;28;20958;-73
2022/03/13 09:59:54;;;;;;;44.00;40.20;;;11.90;49.30;;;;;;5094097;28;20457;-72
2022/03/13 10:02:32;;;;;;;42.53;38.80;;;11.90;49.10;;;;;;5094402;28;20488;-73
2022/03/13 10:05:06;;;;;;;44.43;40.17;;;11.90;49.00;;;;;;5094306;28;20778;-73
2022/03/13 10:07:55;;;;;;;42.77;38.73;;;12.00;48.80;;;;;;5094038;28;20508;-73
2022/03/13 10:10:23;;;;;;;42.47;38.97;;;12.10;48.80;;;;;;5094005;28;20534;-72
2022/03/13 10:12:50;;;;;;;43.97;40.17;;;12.30;48.60;;;;;;5094018;28;20570;-73
2022/03/13 10:15:17;;;;;;;42.83;39.23;;;12.40;48.20;;;;;;5094015;28;20458;-73
2022/03/13 10:17:44;;;;;;;43.13;39.53;;;12.40;47.90;;;;;;5094126;28;20549;-73
2022/03/13 10:20:19;;;;;;;42.63;38.63;;;12.60;47.70;;;;;;5093666;28;20459;-73
2022/03/13 10:22:48;;;;;;;42.87;39.47;;;12.60;47.60;;;;;;5094068;28;20475;-73
2022/03/13 10:25:19;;;;;;;43.03;39.30;;;12.60;47.90;;;;;;5093898;28;20459;-73
2022/03/13 10:27:46;;;;;;;44.17;40.27;;;12.70;47.60;;;;;;5093862;28;20452;-73
2022/03/13 10:30:13;;;;;;;42.07;38.47;;;12.70;47.60;;;;;;5093535;28;20532;-73
2022/03/13 10:32:40;;;;;;;42.87;38.97;;;12.80;47.60;;;;;;5093650;28;20484;-73
2022/03/13 10:35:07;;;;;;;44.40;40.40;;;13.00;47.40;;;;;;5093653;28;20456;-73
2022/03/13 10:37:40;;;;;;;40.67;37.37;;;13.20;47.10;;;;;;5093707;28;20455;-73
2022/03/13 10:40:16;;;;;;;42.73;39.17;;;13.20;46.30;;;;;;5093593;28;20514;-71
2022/03/13 10:42:44;;;;;;;41.67;38.03;;;13.30;46.30;;;;;;5093702;28;20469;-73
2022/03/13 10:45:15;;;;;;;42.60;39.10;;;13.40;46.30;;;;;;5093293;28;20818;-73
2022/03/13 10:47:42;;;;;;;43.30;39.50;;;13.30;46.50;;;;;;5093526;28;21075;-73
2022/03/13 10:50:09;;;;;;;42.17;38.57;;;13.50;46.00;;;;;;5093103;28;20537;-73
2022/03/13 10:52:41;;;;;;;43.43;39.70;;;13.40;46.20;;;;;;5093418;28;20485;-73
2022/03/13 10:55:21;;;;;;;43.43;39.83;;;13.40;46.30;;;;;;5093484;28;20557;-73
2022/03/13 10:57:49;;;;;;;44.23;40.17;;;13.50;46.30;;;;;;5093308;28;20472;-72
2022/03/13 11:00:17;;;;;;;42.73;38.73;;;13.70;45.90;;;;;;5093116;28;20938;-73
2022/03/13 11:02:44;;;;;;;43.97;40.37;;;13.60;46.10;;;;;;5092444;28;20472;-73
2022/03/13 11:05:11;;;;;;;42.87;39.10;;;13.70;45.90;;;;;;5092983;28;20458;-73
2022/03/13 11:07:39;;;;;;;45.23;39.90;;;13.80;45.70;;;;;;5093066;28;20466;-73
2022/03/13 11:10:08;;;;;;;44.80;41.10;;;13.90;45.40;;;;;;5092800;28;20481;-73
2022/03/13 11:12:37;;;;;;;43.83;39.83;;;13.90;45.30;;;;;;5093029;28;20560;-73
2022/03/13 11:15:05;;;;;;;44.00;40.00;;;14.00;45.10;;;;;;5092999;28;20460;-73
2022/03/13 11:17:34;;;;;;;45.90;41.87;;;14.00;45.00;;;;;;5093007;28;20498;-73
2022/03/13 11:20:02;;;;;;;43.50;39.53;;;14.20;44.90;;;;;;5092795;28;20499;-73
2022/03/13 11:22:30;;;;;;;45.93;41.83;;;14.30;44.40;;;;;;5092812;28;20527;-73
2022/03/13 11:25:02;;;;;;;44.90;41.07;;;14.30;44.20;;;;;;5092893;28;20450;-73
2022/03/13 11:27:31;;;;;;;45.97;41.73;;;14.50;43.40;;;;;;5092809;28;20456;-73
2022/03/13 11:29:58;;;;;;;45.90;42.00;;;14.50;43.40;;;;;;5092635;28;20543;-73
2022/03/13 11:32:34;;;;;;;46.33;42.37;;;14.60;43.10;;;;;;5092830;28;20573;-72
2022/03/13 11:35:20;;;;;;;45.93;41.77;;;14.60;43.30;;;;;;5092771;28;20484;-73
2022/03/13 11:37:48;;;;;;;44.93;40.83;;;14.60;43.20;;;;;;5092834;28;20453;-72
2022/03/13 11:40:18;;;;;;;43.97;40.20;;;14.80;42.60;;;;;;5092632;28;20965;-72
2022/03/13 11:42:47;;;;;;;45.00;41.20;;;14.70;43.00;;;;;;5092748;28;20473;-73
2022/03/13 11:45:34;;;;;;;48.07;43.70;;;14.90;42.60;;;;;;5092720;28;20507;-73
2022/03/13 11:48:45;;;;;;;47.93;43.73;;;14.90;43.10;;;;;;5092603;28;20496;-73
2022/03/13 11:51:30;;;;;;;48.33;43.73;;;15.00;43.00;;;;;;5092141;28;20552;-72
2022/03/13 11:53:58;;;;;;;46.53;42.23;;;15.00;43.10;;;;;;5092691;28;20564;-73
2022/03/13 11:56:30;;;;;;;46.27;42.07;;;15.10;43.00;;;;;;5092607;28;21018;-73
2022/03/13 11:59:00;;;;;;;47.20;42.77;;;15.00;43.20;;;;;;5092569;28;20446;-73
2022/03/13 12:01:35;;;;;;;45.83;41.73;;;15.10;43.00;;;;;;5092385;28;20505;-71
2022/03/13 12:04:25;;;;;;;46.77;42.60;;;15.30;42.70;;;;;;5092542;28;20480;-71
2022/03/13 12:06:57;;;;;;;44.17;40.20;;;15.50;42.30;;;;;;5092317;28;20500;-71
2022/03/13 12:09:32;;;;;;;46.83;42.53;;;15.40;42.40;;;;;;5092251;28;21008;-71
2022/03/13 12:12:05;;;;;;;48.00;43.40;;;15.30;42.60;;;;;;5092264;28;20469;-71
2022/03/13 12:14:59;;;;;;;44.53;40.60;;;15.40;42.20;;;;;;5093482;28;20502;-72
2022/03/13 12:17:29;;;;;;;45.50;41.50;;;15.50;41.80;;;;;;5096584;28;20446;-71
2022/03/13 12:19:57;;;;;;;45.00;41.17;;;15.60;41.30;;;;;;5096178;28;20536;-71
2022/03/13 12:22:26;;;;;;;44.50;40.17;;;15.50;41.50;;;;;;5096393;28;20466;-71
2022/03/13 12:24:55;;;;;;;43.47;39.53;;;15.60;41.30;;;;;;5096589;28;20453;-71
2022/03/13 12:27:24;;;;;;;43.90;39.43;;;15.60;41.50;;;;;;5096338;28;20449;-71
2022/03/13 12:29:55;;;;;;;46.57;42.57;;;15.80;41.10;;;;;;5096049;28;20454;-71
2022/03/13 12:32:22;;;;;;;45.97;41.77;;;16.00;40.30;;;;;;5096349;28;20477;-71
2022/03/13 12:34:49;;;;;;;45.83;41.83;;;16.10;40.30;;;;;;5096212;28;20479;-71
2022/03/13 12:37:16;;;;;;;44.13;40.10;;;16.10;40.40;;;;;;5096168;28;20448;-71
2022/03/13 12:39:50;;;;;;;44.37;40.67;;;16.10;40.20;;;;;;5095959;28;20456;-71
2022/03/13 12:42:24;;;;;;;46.10;41.90;;;16.10;40.10;;;;;;5096017;28;20504;-71